If you wish to contribute or participate in the discussions about articles you are invited to join SKYbrary as a registered user

 Actions

Bettles Airport

From SKYbrary Wiki

PABT
Airport
ICAO: PABT – IATA: BTT
Summary
Name Bettles Airport
Region North America
Territory Alaska US.gif
Location , Alaska
Serving Bettles
Elevation 197.206 m
647 ft
647 ft197.206 m
Type medium airport
Coordinates 66° 54' 50.20" N, 151° 31' 44.60" W
Runways
Designator Length Width Surface ROPS
1/19 1582 m5,190.289 ft
46 m150.919 ft
GVL /


METAR
Observation PABT 050253Z VRB06KT 10SM -TSRA BKN075CB BKN100 17/06 A2991 RMK AO2 RAB51 SLP134 OCNL LTGCG VC N TS VC N CB VC NE-SE AND VC S-NW MOV N SHRA VC N AND DSNT W-NW P0000 60000 T01670061 53010
Station Bettles, Bettles Airport
Date/Time 05 June 2020 02:53:00
Wind direction °
Wind speed 06 kts
Lowest cloud amount broken clouds
Temperature 16.7°C
Dew point 6.1°C
Humidity 49%
QNH hPa
Weather condition light thunderstorm rain